Time;durP1;ratioP1;P1;durP2;ratioP2;P2;SDS_P1;SDS_P2;PMS_P1;PMS_P2;Temp;Humidity;BMP_temperature;BMP_pressure;BME280_temperature;BME280_humidity;BME280_pressure;Samples;Min_cycle;Max_cycle;Signal;HPM_P1;HPM_P2
2022/03/27 00:01:19;;;;;;;4.18;0.98;;;;;;;-2.13;75.31;97425.25;5992009;23;20025;-76
2022/03/27 00:03:45;;;;;;;3.60;0.82;;;;;;;-2.10;74.06;97432.94;6016902;23;20101;-75
2022/03/27 00:06:11;;;;;;;1.75;0.63;;;;;;;-2.06;73.86;97434.34;6016098;23;20338;-75
2022/03/27 00:08:37;;;;;;;3.13;0.82;;;;;;;-2.17;73.74;97429.13;5993020;23;20046;-75
2022/03/27 00:13:47;;;;;;;2.70;0.82;;;;;;;-2.41;76.91;97395.78;6020311;23;20054;-75
2022/03/27 00:16:14;;;;;;;3.63;0.82;;;;;;;-2.07;78.42;97448.56;5992576;23;20456;-72
2022/03/27 00:18:41;;;;;;;6.40;1.10;;;;;;;-2.05;78.67;97436.03;6016763;23;20027;-76
2022/03/27 00:21:08;;;;;;;4.05;0.93;;;;;;;-2.11;79.64;97441.84;5992691;23;20026;-76
2022/03/27 00:23:34;;;;;;;4.22;1.00;;;;;;;-2.30;80.31;97440.72;5969968;23;20027;-73
2022/03/27 00:26:00;;;;;;;2.55;0.63;;;;;;;-2.20;81.15;97438.97;6016167;23;20041;-75
2022/03/27 00:28:31;;;;;;;4.13;1.05;;;;;;;-2.20;80.26;97444.25;5992306;23;20405;-75
2022/03/27 00:31:02;;;;;;;3.85;0.90;;;;;;;-2.25;79.37;97441.16;6015247;23;20030;-75
2022/03/27 00:33:28;;;;;;;4.07;1.00;;;;;;;-2.22;79.23;97432.16;6038986;23;20352;-75
2022/03/27 00:35:58;;;;;;;3.33;1.00;;;;;;;-2.15;77.62;97446.56;6015877;23;20075;-75
2022/03/27 00:38:25;;;;;;;;;;;;;;;-2.19;76.63;97447.78;5969622;23;20034;-76
2022/03/27 00:40:51;;;;;;;3.10;0.90;;;;;;;-2.17;75.53;97450.28;6039448;23;20005;-75
2022/03/27 00:43:20;;;;;;;2.88;0.82;;;;;;;-2.15;75.42;97451.84;5992286;23;20461;-76
2022/03/27 00:45:47;;;;;;;3.35;1.00;;;;;;;-2.24;75.59;97442.84;6039845;23;20050;-76
2022/03/27 00:48:20;;;;;;;4.05;1.00;;;;;;;-2.29;76.02;97437.09;6015687;23;20090;-75
2022/03/27 00:50:49;;;;;;;3.30;0.90;;;;;;;-2.33;76.06;97443.59;6015740;23;20114;-75
2022/03/27 00:53:16;;;;;;;2.33;0.75;;;;;;;-2.30;77.40;97464.53;6015067;23;20034;-75
2022/03/27 00:55:42;;;;;;;8.52;0.90;;;;;;;-2.21;77.70;97463.75;6016170;23;20030;-74
2022/03/27 00:58:08;;;;;;;5.22;1.10;;;;;;;-2.22;77.47;97459.44;5995101;23;20018;-75
2022/03/27 01:00:45;;;;;;;3.30;0.90;;;;;;;-2.28;77.51;97454.66;6042294;23;20034;-75
2022/03/27 01:03:26;;;;;;;4.43;1.20;;;;;;;-2.33;79.20;97463.94;5994898;23;20033;-75
2022/03/27 01:05:53;;;;;;;2.03;0.80;;;;;;;-2.36;78.81;97459.72;6041687;23;20030;-75
2022/03/27 01:11:18;;;;;;;2.75;0.80;;;;;;;-2.41;79.95;97456.63;6020935;23;20158;-74
2022/03/27 01:13:49;;;;;;;3.92;1.10;;;;;;;-2.40;81.49;97463.59;6041262;23;20136;-76
2022/03/27 01:16:17;;;;;;;2.95;0.82;;;;;;;-2.43;81.71;97475.25;6040971;23;20038;-75
2022/03/27 01:18:43;;;;;;;3.97;0.82;;;;;;;-2.45;81.78;97476.34;6017564;23;20019;-75
2022/03/27 01:21:09;;;;;;;5.40;1.05;;;;;;;-2.68;80.07;97433.22;6017234;23;20084;-75
2022/03/27 01:23:35;;;;;;;4.07;1.10;;;;;;;-2.60;80.79;97457.25;6017941;23;20075;-75
2022/03/27 01:26:01;;;;;;;4.20;1.15;;;;;;;-2.52;82.20;97470.72;6018861;23;20034;-74
2022/03/27 01:28:27;;;;;;;3.97;1.00;;;;;;;-2.47;81.73;97483.56;6020058;23;20034;-76
2022/03/27 01:30:53;;;;;;;3.22;0.90;;;;;;;-2.53;81.53;97476.13;5995605;23;20537;-77
2022/03/27 01:33:19;;;;;;;2.63;0.80;;;;;;;-2.49;81.50;97485.47;6017828;23;20213;-75
2022/03/27 01:35:44;;;;;;;2.50;0.80;;;;;;;-2.53;81.69;97478.75;5999266;23;20042;-75
2022/03/27 01:38:10;;;;;;;2.42;0.95;;;;;;;-2.58;82.96;97478.31;6022402;23;20095;-75
2022/03/27 01:40:36;;;;;;;8.40;0.93;;;;;;;-2.60;82.83;97477.56;5997732;23;20023;-75
2022/03/27 01:43:02;;;;;;;3.70;0.90;;;;;;;-2.65;82.77;97480.59;5972821;23;20023;-75
2022/03/27 01:45:28;;;;;;;3.67;0.95;;;;;;;-2.73;81.23;97473.28;5993530;23;20529;-75
2022/03/27 01:47:54;;;;;;;3.20;0.80;;;;;;;-2.71;82.03;97487.19;5988881;23;20592;-74
2022/03/27 01:50:19;;;;;;;4.68;1.35;;;;;;;-2.69;82.95;97481.81;6018978;23;20075;-75
2022/03/27 01:52:45;;;;;;;2.42;0.65;;;;;;;-2.68;82.19;97491.41;5986478;23;20022;-75
2022/03/27 01:55:16;;;;;;;4.47;0.90;;;;;;;-2.76;82.66;97481.44;6042158;23;20058;-76
2022/03/27 01:57:43;;;;;;;3.03;0.70;;;;;;;-2.63;82.69;97504.25;6018719;23;20026;-75
2022/03/27 02:00:11;;;;;;;1.10;0.50;;;;;;;-2.62;81.78;97500.69;6041051;23;20079;-75
2022/03/27 02:02:41;;;;;;;3.20;0.85;;;;;;;-2.67;81.07;97496.59;6018328;23;20074;-76
2022/03/27 02:05:07;;;;;;;5.05;1.05;;;;;;;-2.67;81.87;97504.53;6016914;23;20023;-76
2022/03/27 02:07:37;;;;;;;2.55;0.63;;;;;;;-2.68;81.96;97502.00;6017054;23;20027;-74
2022/03/27 02:10:06;;;;;;;3.00;0.82;;;;;;;-2.63;81.92;97512.19;6065679;23;20019;-76
2022/03/27 02:12:34;;;;;;;4.95;0.93;;;;;;;-2.67;80.25;97515.09;5993570;23;20049;-75
2022/03/27 02:15:01;;;;;;;3.35;0.75;;;;;;;-2.65;80.32;97516.78;6018195;23;20439;-76
2022/03/27 02:17:27;;;;;;;4.22;1.05;;;;;;;-2.69;80.07;97514.38;6066457;23;20037;-77
2022/03/27 02:19:53;;;;;;;2.78;0.80;;;;;;;-2.68;81.27;97521.34;6018264;23;20034;-75
2022/03/27 02:22:19;;;;;;;4.50;0.90;;;;;;;-2.69;79.97;97506.44;6040380;23;20153;-75
2022/03/27 02:24:45;;;;;;;1.30;0.50;;;;;;;-2.68;80.33;97513.41;5994047;23;20114;-75
2022/03/27 02:27:11;;;;;;;4.40;0.85;;;;;;;-2.68;80.32;97518.69;6016400;23;20045;-76
2022/03/27 02:29:36;;;;;;;1.77;0.60;;;;;;;-2.74;80.24;97529.78;6042869;23;20707;-74
2022/03/27 02:32:03;;;;;;;3.30;0.80;;;;;;;-2.68;80.75;97518.69;6042679;23;20115;-74
2022/03/27 02:34:29;;;;;;;5.63;0.90;;;;;;;-2.80;81.16;97508.25;6017832;23;20035;-76
2022/03/27 02:36:54;;;;;;;2.30;0.50;;;;;;;-2.72;82.40;97532.28;6018229;23;20034;-75
2022/03/27 02:39:20;;;;;;;2.85;0.75;;;;;;;-2.78;83.50;97541.56;6017809;23;20027;-74
2022/03/27 02:41:46;;;;;;;5.47;0.80;;;;;;;-2.81;83.64;97533.84;6018405;23;20177;-75
2022/03/27 02:44:12;;;;;;;4.70;0.85;;;;;;;-2.84;83.80;97544.66;6018409;23;20034;-77
2022/03/27 02:46:39;;;;;;;2.63;1.10;;;;;;;-2.90;85.93;97545.13;5995518;23;20023;-75
2022/03/27 02:49:04;;;;;;;1.70;0.50;;;;;;;-2.85;87.49;97550.94;5994735;23;20422;-75
2022/03/27 02:51:30;;;;;;;5.63;0.73;;;;;;;-2.91;86.94;97543.47;6018589;23;20055;-76
2022/03/27 02:53:56;;;;;;;3.22;0.80;;;;;;;-2.92;86.23;97561.13;6041832;23;20022;-77
2022/03/27 02:56:22;;;;;;;3.67;0.70;;;;;;;-3.05;85.79;97556.91;5997116;23;20055;-76
2022/03/27 02:58:48;;;;;;;43.47;3.53;;;;;;;-3.09;85.82;97560.75;6017303;23;20109;-75
2022/03/27 03:01:14;;;;;;;2.78;0.65;;;;;;;-3.00;86.13;97560.88;6019484;23;20082;-75
2022/03/27 03:03:42;;;;;;;6.00;0.80;;;;;;;-3.06;85.71;97565.78;6023135;23;20026;-76
2022/03/27 03:06:09;;;;;;;3.85;0.90;;;;;;;-3.01;85.83;97571.56;6047381;23;20023;-75
2022/03/27 03:08:37;;;;;;;3.90;0.95;;;;;;;-3.06;85.16;97574.56;6047033;23;20038;-77
2022/03/27 03:11:03;;;;;;;5.65;0.75;;;;;;;-3.02;84.89;97583.94;6000947;23;20027;-75
2022/03/27 03:13:29;;;;;;;2.72;0.80;;;;;;;-2.97;85.11;97586.22;6047214;23;20126;-76
2022/03/27 03:15:56;;;;;;;4.03;0.70;;;;;;;-2.94;84.65;97588.63;5999049;23;20042;-75
2022/03/27 03:18:22;;;;;;;4.78;0.90;;;;;;;-2.89;84.57;97589.09;6018220;23;20338;-75
2022/03/27 03:20:48;;;;;;;4.55;1.00;;;;;;;-2.95;83.50;97597.53;5993776;23;20023;-75
2022/03/27 03:23:13;;;;;;;3.67;0.70;;;;;;;-2.92;82.81;97590.19;6016697;23;20103;-74
2022/03/27 03:25:40;;;;;;;2.30;0.50;;;;;;;-2.88;83.04;97601.38;6016198;23;20027;-75
2022/03/27 03:28:06;;;;;;;4.72;0.80;;;;;;;-2.94;81.92;97596.56;5993449;23;20044;-76
2022/03/27 03:30:32;;;;;;;1.95;0.80;;;;;;;-2.88;81.64;97611.13;6000426;23;20078;-76
2022/03/27 03:32:58;;;;;;;1.45;0.50;;;;;;;-2.89;82.06;97610.25;6015241;23;20031;-77
2022/03/27 03:35:24;;;;;;;1.88;0.70;;;;;;;-2.87;81.36;97610.16;6016640;23;20114;-75
2022/03/27 03:37:49;;;;;;;2.78;0.80;;;;;;;-2.84;81.60;97613.41;6016138;23;20362;-76
2022/03/27 03:40:15;;;;;;;1.42;0.50;;;;;;;-2.84;81.67;97623.16;6040069;23;20054;-75
2022/03/27 03:42:41;;;;;;;4.40;0.88;;;;;;;-2.83;82.14;97636.22;5992311;23;20034;-76
2022/03/27 03:45:08;;;;;;;5.75;1.05;;;;;;;-2.86;83.56;97639.09;6017216;23;20113;-76
2022/03/27 03:47:34;;;;;;;3.78;0.90;;;;;;;-3.01;82.10;97632.34;5992767;23;20110;-71
2022/03/27 03:49:59;;;;;;;4.32;0.90;;;;;;;-3.13;81.71;97620.06;5993838;23;20477;-75
2022/03/27 03:52:37;;;;;;;5.57;0.88;;;;;;;-3.37;79.40;97631.50;5993065;23;20114;-77
2022/03/27 03:55:03;;;;;;;12.90;1.17;;;;;;;-3.47;76.94;97636.66;5987289;23;20050;-74
2022/03/27 03:57:30;;;;;;;3.15;0.70;;;;;;;-3.30;75.41;97659.16;5990678;23;20083;-76
2022/03/27 03:59:56;;;;;;;5.22;0.93;;;;;;;-3.31;74.69;97677.78;6011120;23;20078;-76
2022/03/27 04:02:21;;;;;;;6.40;1.30;;;;;;;-3.42;74.01;97639.78;6014492;23;20146;-76
2022/03/27 04:04:47;;;;;;;5.28;1.05;;;;;;;-3.44;72.41;97680.47;5986234;23;20027;-76
2022/03/27 04:07:14;;;;;;;5.03;1.00;;;;;;;-3.57;72.06;97658.56;6015920;23;20453;-77
2022/03/27 04:09:40;;;;;;;2.75;0.73;;;;;;;-3.40;72.53;97689.84;6006669;23;20376;-77
2022/03/27 04:12:06;;;;;;;3.30;0.82;;;;;;;-3.33;72.71;97696.34;6040389;23;20403;-77
2022/03/27 04:14:36;;;;;;;3.10;1.00;;;;;;;-3.42;71.30;97689.13;6016460;23;20034;-76
2022/03/27 04:17:05;;;;;;;2.47;0.80;;;;;;;-3.48;72.02;97671.91;6041457;23;20027;-77
2022/03/27 04:19:31;;;;;;;6.57;0.80;;;;;;;-3.30;71.30;97711.16;5993705;23;20027;-76
2022/03/27 04:21:57;;;;;;;2.50;0.60;;;;;;;-3.28;70.61;97715.38;6017813;23;20033;-76
2022/03/27 04:24:23;;;;;;;3.25;0.85;;;;;;;-3.25;70.71;97717.81;6014560;23;20094;-76
2022/03/27 04:26:49;;;;;;;5.18;0.82;;;;;;;-3.17;70.92;97711.94;5985358;23;20129;-77
2022/03/27 04:29:15;;;;;;;4.07;0.75;;;;;;;-3.25;69.50;97694.03;6040150;23;20488;-75
2022/03/27 04:31:41;;;;;;;4.68;1.15;;;;;;;-3.22;69.84;97719.34;6007334;23;20022;-77
2022/03/27 04:34:08;;;;;;;3.40;0.80;;;;;;;-3.23;69.00;97718.50;6042177;23;20027;-77
2022/03/27 04:36:34;;;;;;;4.90;0.90;;;;;;;-3.13;70.05;97734.53;6020125;23;20026;-76
2022/03/27 04:39:00;;;;;;;3.72;0.80;;;;;;;-2.96;70.53;97743.88;6020408;23;20034;-77
2022/03/27 04:41:26;;;;;;;3.58;0.90;;;;;;;-2.95;70.36;97734.97;6044057;23;20027;-76
2022/03/27 04:43:52;;;;;;;3.55;0.60;;;;;;;-3.05;69.29;97736.63;6020353;23;20026;-76
2022/03/27 04:46:18;;;;;;;3.42;0.85;;;;;;;-3.10;68.26;97746.69;6019871;23;20027;-75
2022/03/27 04:48:45;;;;;;;2.47;0.63;;;;;;;-3.08;68.32;97757.97;6020634;23;20018;-76
2022/03/27 04:51:11;;;;;;;3.65;0.85;;;;;;;-3.23;67.36;97776.63;6021436;23;20389;-75
2022/03/27 04:53:37;;;;;;;7.18;1.10;;;;;;;-3.33;67.58;97765.03;5998043;23;20067;-76
2022/03/27 04:56:05;;;;;;;4.47;0.80;;;;;;;-3.37;68.36;97755.66;6020295;23;20369;-79
2022/03/27 04:58:31;;;;;;;7.80;1.00;;;;;;;-3.29;68.68;97776.22;6022044;23;20050;-77
2022/03/27 05:00:57;;;;;;;3.55;0.80;;;;;;;-3.28;67.47;97778.78;6045606;23;20697;-79
2022/03/27 05:03:23;;;;;;;4.20;0.80;;;;;;;-3.21;67.09;97790.59;6021796;23;20019;-77
2022/03/27 05:05:49;;;;;;;4.18;0.93;;;;;;;-3.36;67.36;97796.13;6022832;23;20038;-77
2022/03/27 05:08:15;;;;;;;7.18;0.98;;;;;;;-3.11;68.33;97805.75;6023237;23;20023;-75
2022/03/27 05:10:41;;;;;;;3.85;0.90;;;;;;;-3.04;66.76;97807.84;5989728;23;20371;-78
2022/03/27 05:13:08;;;;;;;3.20;0.80;;;;;;;-3.02;65.42;97820.97;6024923;23;20022;-78
2022/03/27 05:15:34;;;;;;;1.75;0.60;;;;;;;-3.17;64.61;97834.34;6024321;23;20030;-79
2022/03/27 05:18:01;;;;;;;3.65;0.90;;;;;;;-3.05;64.46;97826.47;6024170;23;20050;-77
2022/03/27 05:20:29;;;;;;;2.63;0.63;;;;;;;-3.01;64.95;97812.06;6025378;23;20122;-77
2022/03/27 05:22:56;;;;;;;3.58;0.88;;;;;;;-3.02;63.42;97836.84;6000686;23;20030;-77
2022/03/27 05:25:22;;;;;;;4.95;0.93;;;;;;;-3.24;63.35;97838.38;6000575;23;20034;-77
2022/03/27 05:27:51;;;;;;;2.88;0.82;;;;;;;-2.86;62.78;97826.81;6046831;23;20027;-76
2022/03/27 05:30:24;;;;;;;1.27;0.60;;;;;;;-2.61;61.40;97832.94;6021152;23;20113;-77
2022/03/27 05:32:51;;;;;;;3.83;0.73;;;;;;;-2.41;60.32;97842.91;6044242;23;20034;-76
2022/03/27 05:35:17;;;;;;;4.55;1.20;;;;;;;-2.74;59.88;97825.09;6042796;23;20350;-77
2022/03/27 05:37:45;;;;;;;3.22;0.93;;;;;;;-2.68;58.21;97809.59;6020003;23;20031;-77
2022/03/27 05:40:13;;;;;;;2.35;0.50;;;;;;;-2.27;58.61;97857.72;6042032;23;20398;-76
2022/03/27 05:42:39;;;;;;;3.78;0.98;;;;;;;-2.09;57.18;97874.00;6019466;23;20035;-78
2022/03/27 05:45:09;;;;;;;10.25;1.17;;;;;;;-2.27;57.02;97855.91;6020514;23;20556;-76
2022/03/27 05:47:37;;;;;;;7.25;1.08;;;;;;;-2.24;56.93;97868.91;6019667;23;20113;-76
2022/03/27 05:50:04;;;;;;;1.25;0.60;;;;;;;-2.13;55.12;97827.56;5996984;23;20026;-76
2022/03/27 05:52:30;;;;;;;1.88;0.60;;;;;;;-2.01;53.69;97871.63;6024951;23;20697;-76
2022/03/27 05:54:57;;;;;;;4.13;1.27;;;;;;;-1.55;54.30;97884.00;6000594;23;20019;-76
2022/03/27 05:57:23;;;;;;;3.72;0.90;;;;;;;-1.66;53.78;97883.97;6023442;23;20023;-78
2022/03/27 05:59:49;;;;;;;2.60;0.90;;;;;;;-1.29;53.18;97893.38;6018321;23;20046;-78
2022/03/27 06:02:15;;;;;;;4.07;0.80;;;;;;;-1.17;53.44;97899.56;5995978;23;20564;-77
2022/03/27 06:04:41;;;;;;;6.10;1.20;;;;;;;-1.24;50.62;97864.72;6019324;23;20033;-76
2022/03/27 06:07:08;;;;;;;4.32;0.75;;;;;;;-1.42;51.88;97894.50;6047365;23;20075;-76
2022/03/27 06:09:35;;;;;;;12.32;1.10;;;;;;;-1.90;55.14;97895.50;6049332;23;20429;-78
2022/03/27 06:12:02;;;;;;;7.53;1.08;;;;;;;-2.11;57.88;97918.31;6025446;23;20303;-78
2022/03/27 06:14:28;;;;;;;10.65;0.90;;;;;;;-2.24;59.02;97902.47;6047120;23;20053;-77
2022/03/27 06:16:55;;;;;;;3.67;0.82;;;;;;;-2.56;59.82;97910.13;6025572;23;20472;-78
2022/03/27 06:19:21;;;;;;;2.72;0.95;;;;;;;-2.38;61.09;97915.88;6005774;23;20473;-78
2022/03/27 06:21:47;;;;;;;4.70;1.30;;;;;;;-2.83;64.27;97900.63;6002423;23;20026;-75
2022/03/27 06:24:13;;;;;;;5.65;1.00;;;;;;;-3.02;67.02;97931.97;6029171;23;20027;-77
2022/03/27 06:26:40;;;;;;;7.47;0.98;;;;;;;-3.28;69.99;97937.31;6001595;23;20030;-75
2022/03/27 06:29:07;;;;;;;3.95;0.98;;;;;;;-2.97;69.94;97945.69;6001189;23;20181;-75
2022/03/27 06:31:35;;;;;;;3.80;0.98;;;;;;;-3.15;69.03;97935.47;6044674;23;20062;-74
2022/03/27 06:34:01;;;;;;;6.18;1.10;;;;;;;-2.97;67.36;97941.25;6050328;23;20136;-78
2022/03/27 06:36:27;;;;;;;4.40;0.98;;;;;;;-3.21;66.64;97933.28;6052919;23;20034;-76
2022/03/27 06:38:53;;;;;;;2.53;0.70;;;;;;;-3.33;64.87;97949.13;5999730;23;20365;-76
2022/03/27 06:41:19;;;;;;;3.03;0.73;;;;;;;-3.34;63.58;97953.56;6025353;23;20389;-77
2022/03/27 06:43:45;;;;;;;3.70;0.80;;;;;;;-2.91;63.86;97961.13;6000415;23;20222;-77
2022/03/27 06:46:16;;;;;;;4.97;0.90;;;;;;;-2.72;61.63;97972.09;6001704;23;20153;-75
2022/03/27 06:48:47;;;;;;;5.28;0.82;;;;;;;-2.86;60.11;97974.03;6001738;23;20070;-78
2022/03/27 06:51:14;;;;;;;19.85;2.00;;;;;;;-2.89;60.45;97955.72;6028870;23;20018;-77
2022/03/27 06:53:41;;;;;;;4.00;1.00;;;;;;;-3.17;61.20;97971.75;5976122;23;20067;-77
2022/03/27 06:56:08;;;;;;;21.83;2.00;;;;;;;-3.25;61.23;97958.22;6025420;23;20022;-76
2022/03/27 06:58:34;;;;;;;3.92;1.00;;;;;;;-3.13;61.87;98019.94;6046369;23;20023;-74
2022/03/27 07:03:44;;;;;;;2.92;1.15;;;;;;;-2.87;58.27;97989.06;6005521;23;20021;-78
2022/03/27 07:06:10;;;;;;;3.25;0.70;;;;;;;-2.77;59.04;98015.69;6025764;23;20114;-78
2022/03/27 07:08:37;;;;;;;8.15;1.10;;;;;;;-2.75;59.33;98033.13;6028072;23;20059;-77
2022/03/27 07:11:03;;;;;;;4.15;1.00;;;;;;;-3.04;61.58;98007.88;6027584;23;20087;-78
2022/03/27 07:13:30;;;;;;;4.55;0.82;;;;;;;-3.28;66.46;98034.22;6002674;23;20378;-76
2022/03/27 07:15:57;;;;;;;5.60;1.10;;;;;;;-3.17;65.25;98036.97;6003482;23;20129;-69
2022/03/27 07:18:24;;;;;;;5.68;1.10;;;;;;;-3.17;63.38;98045.75;6018219;23;20180;-74
2022/03/27 07:20:50;;;;;;;9.85;1.40;;;;;;;-2.83;63.15;98043.41;5991380;23;20023;-71
2022/03/27 07:23:19;;;;;;;5.13;1.15;;;;;;;-2.74;59.50;98032.19;5989955;23;20061;-70
2022/03/27 07:25:48;;;;;;;3.33;1.02;;;;;;;-2.51;58.03;98054.34;6042976;23;20255;-69
2022/03/27 07:28:18;;;;;;;5.68;1.33;;;;;;;-2.84;57.28;98052.28;6042794;23;20466;-67
2022/03/27 07:30:45;;;;;;;4.50;1.02;;;;;;;-2.63;56.79;98051.72;5992583;23;20090;-68
2022/03/27 07:33:12;;;;;;;4.57;0.98;;;;;;;-2.78;55.47;98061.59;6013217;23;20023;-70
2022/03/27 07:35:39;;;;;;;3.78;1.00;;;;;;;-2.50;54.88;98071.06;6019557;23;20022;-72
2022/03/27 07:38:05;;;;;;;4.88;1.00;;;;;;;-2.35;53.92;98059.38;6016613;23;20434;-68
2022/03/27 07:40:32;;;;;;;3.58;1.00;;;;;;;-2.12;52.08;98076.28;6015132;23;20051;-67
2022/03/27 07:42:58;;;;;;;3.78;1.02;;;;;;;-1.34;50.08;98061.72;6014566;23;20037;-67
2022/03/27 07:45:29;;;;;;;2.88;0.90;;;;;;;-1.66;49.95;98085.31;6038681;23;20027;-68
2022/03/27 07:47:56;;;;;;;2.92;0.80;;;;;;;-1.66;50.66;98098.56;6015154;23;20102;-68
2022/03/27 07:50:23;;;;;;;7.30;1.10;;;;;;;-2.09;51.25;98085.78;6015668;23;20038;-68
2022/03/27 07:52:49;;;;;;;9.05;1.40;;;;;;;-2.32;55.35;98090.94;6014127;23;20185;-67
2022/03/27 07:55:17;;;;;;;7.90;1.45;;;;;;;-2.67;57.65;98096.06;5992261;23;20035;-67
2022/03/27 07:57:44;;;;;;;3.75;0.90;;;;;;;-2.47;58.05;98090.22;6013925;23;20058;-67
2022/03/27 08:00:11;;;;;;;5.40;1.10;;;;;;;-2.65;56.75;98111.84;6015468;23;20030;-67
2022/03/27 08:02:42;;;;;;;6.10;1.13;;;;;;;-2.54;55.54;98106.63;5992276;23;20022;-69
2022/03/27 08:05:08;;;;;;;8.13;1.30;;;;;;;-2.91;56.35;98120.59;6037788;23;20031;-68
2022/03/27 08:07:35;;;;;;;4.50;0.95;;;;;;;-2.45;55.79;98090.09;6014764;23;20087;-67
2022/03/27 08:10:01;;;;;;;13.60;1.20;;;;;;;-2.30;54.90;98131.38;6038985;23;20031;-67
2022/03/27 08:12:27;;;;;;;6.43;1.10;;;;;;;-2.55;57.03;98136.69;6015179;23;20428;-68
2022/03/27 08:14:53;;;;;;;7.80;1.13;;;;;;;-2.60;58.17;98138.81;6062694;23;20136;-67
2022/03/27 08:17:22;;;;;;;6.75;1.50;;;;;;;-2.79;58.26;98145.34;5991094;23;20019;-67
2022/03/27 08:19:49;;;;;;;5.63;1.85;;;;;;;-2.60;58.08;98144.94;6015945;23;20065;-67
2022/03/27 08:22:16;;;;;;;5.38;1.02;;;;;;;-2.10;57.00;98147.63;6037379;23;20443;-67
2022/03/27 08:24:42;;;;;;;3.95;1.08;;;;;;;-2.38;55.44;98157.50;6015316;23;20137;-67
2022/03/27 08:27:08;;;;;;;4.72;1.38;;;;;;;-2.47;57.25;98144.94;6038282;23;20019;-69
2022/03/27 08:29:37;;;;;;;4.45;1.20;;;;;;;-2.26;59.32;98155.84;6014747;23;20205;-67
2022/03/27 08:32:07;;;;;;;7.10;1.40;;;;;;;-2.55;60.79;98147.28;5968330;23;20025;-68
2022/03/27 08:34:35;;;;;;;5.80;1.52;;;;;;;-2.39;60.70;98184.94;5991100;23;20102;-68
2022/03/27 08:37:04;;;;;;;4.00;1.10;;;;;;;-2.50;58.79;98176.91;5990931;23;20023;-68
2022/03/27 08:39:30;;;;;;;8.45;1.05;;;;;;;-2.25;58.51;98182.19;5991786;23;20365;-68
2022/03/27 08:41:57;;;;;;;6.47;1.15;;;;;;;-2.53;57.69;98169.16;6014741;23;20019;-68
2022/03/27 08:44:26;;;;;;;3.78;0.98;;;;;;;-2.55;57.02;98194.91;6015680;23;20037;-68
2022/03/27 08:46:53;;;;;;;5.03;1.15;;;;;;;-2.20;56.26;98185.34;6016027;23;20022;-67
2022/03/27 08:49:29;;;;;;;5.00;1.20;;;;;;;-1.71;54.15;98181.03;6038933;23;20023;-67
2022/03/27 08:52:10;;;;;;;6.30;1.20;;;;;;;-2.16;54.56;98170.09;6014863;23;20184;-68
2022/03/27 08:54:51;;;;;;;5.35;1.23;;;;;;;-2.51;55.99;98193.72;6016532;23;20038;-67
2022/03/27 08:57:37;;;;;;;4.82;1.25;;;;;;;-2.59;57.58;98219.88;6038452;23;20083;-67
2022/03/27 09:00:04;;;;;;;4.13;1.05;;;;;;;-2.56;57.45;98188.75;5982265;23;20173;-68
2022/03/27 09:02:30;;;;;;;6.25;1.38;;;;;;;-1.88;54.77;98179.56;6036781;23;20023;-72
2022/03/27 09:04:57;;;;;;;5.72;1.50;;;;;;;-2.00;54.16;98214.88;5992438;23;20484;-69
2022/03/27 09:07:24;;;;;;;4.50;1.25;;;;;;;-2.05;55.45;98201.09;6039562;23;20026;-68
2022/03/27 09:09:51;;;;;;;6.72;1.30;;;;;;;-2.46;55.06;98215.41;6016897;23;20171;-69
2022/03/27 09:12:19;;;;;;;5.63;1.48;;;;;;;-1.98;55.52;98224.38;5991461;23;20470;-69
2022/03/27 09:14:45;;;;;;;9.13;1.10;;;;;;;-2.13;53.19;98221.97;6038539;23;20030;-68
2022/03/27 09:17:10;;;;;;;20.55;1.77;;;;;;;-0.83;48.12;98216.03;6015403;23;20031;-67
2022/03/27 09:19:43;;;;;;;3.40;0.88;;;;;;;-0.88;48.49;98250.00;5992823;23;20134;-68
2022/03/27 09:22:18;;;;;;;17.00;3.45;;;;;;;-1.50;50.62;98239.53;6020057;23;20033;-68
2022/03/27 09:24:47;;;;;;;5.45;1.20;;;;;;;-1.77;52.63;98222.03;6040990;23;20033;-68
2022/03/27 09:27:14;;;;;;;9.52;1.30;;;;;;;-1.75;53.47;98246.63;6040895;23;20018;-68
2022/03/27 09:30:01;;;;;;;4.80;1.20;;;;;;;-2.29;55.89;98254.81;5993006;23;20023;-68
2022/03/27 09:32:35;;;;;;;5.25;1.35;;;;;;;-2.36;56.86;98266.75;6016526;23;20054;-68
2022/03/27 09:35:03;;;;;;;12.18;1.75;;;;;;;-2.45;58.32;98275.31;6016754;23;20110;-67
2022/03/27 09:37:33;;;;;;;5.90;1.58;;;;;;;-2.43;59.30;98270.78;6016942;23;20019;-68
2022/03/27 09:39:59;;;;;;;6.50;1.85;;;;;;;-2.23;60.17;98286.16;5993294;23;20134;-68
2022/03/27 09:42:26;;;;;;;7.45;1.60;;;;;;;-1.07;58.49;98286.81;6016181;23;20038;-68
2022/03/27 09:45:16;;;;;;;5.60;1.48;;;;;;;0.76;53.28;98292.25;6040615;23;20035;-68
2022/03/27 09:47:42;;;;;;;;;;;;;;;-0.29;52.01;98305.72;6017499;23;20457;-68
2022/03/27 09:50:28;;;;;;;8.23;1.42;;;;;;;-1.12;53.13;98283.66;6040156;23;19927;-68
2022/03/27 09:53:27;;;;;;;6.88;1.30;;;;;;;-1.12;55.49;98299.56;5993549;23;20023;-68
2022/03/27 09:55:56;;;;;;;6.40;1.80;;;;;;;-0.74;54.29;98321.44;5995358;23;20030;-68
2022/03/27 09:58:44;;;;;;;6.47;1.55;;;;;;;0.84;51.97;98311.97;6017073;23;20033;-68
2022/03/27 10:01:16;;;;;;;9.25;1.60;;;;;;;0.80;49.90;98314.97;6016781;23;20155;-68
2022/03/27 10:04:04;;;;;;;10.82;1.90;;;;;;;1.60;49.33;98315.47;5994208;23;20110;-66
2022/03/27 10:06:38;;;;;;;6.57;1.73;;;;;;;0.42;51.00;98326.84;6040202;23;20147;-68
2022/03/27 10:09:06;;;;;;;5.50;1.50;;;;;;;-0.49;54.74;98340.88;6066002;23;20018;-68
2022/03/27 10:11:33;;;;;;;3.83;1.15;;;;;;;-0.64;56.48;98321.63;6016072;23;20276;-68
2022/03/27 10:13:59;;;;;;;1.85;0.82;;;;;;;1.30;48.50;98339.31;6040218;23;20094;-68
2022/03/27 10:16:32;;;;;;;5.20;1.15;;;;;;;0.69;49.30;98340.59;6016264;23;20026;-69
2022/03/27 10:19:02;;;;;;;6.25;1.70;;;;;;;1.08;48.85;98319.75;5993074;23;20424;-68
2022/03/27 10:21:29;;;;;;;5.82;1.30;;;;;;;0.54;49.61;98330.34;6039618;23;20034;-68
2022/03/27 10:24:09;;;;;;;5.28;1.15;;;;;;;-0.15;52.12;98333.03;6016500;23;20027;-68
2022/03/27 10:26:36;;;;;;;27.02;2.70;;;;;;;-1.06;62.73;98362.75;6016103;23;20026;-67
2022/03/27 10:29:02;;;;;;;9.90;1.40;;;;;;;-1.53;66.29;98375.78;6016152;23;20081;-68
2022/03/27 10:31:30;;;;;;;16.80;2.30;;;;;;;-0.88;67.85;98385.28;5990782;23;20022;-68
2022/03/27 10:33:58;;;;;;;6.60;1.77;;;;;;;-1.31;65.06;98375.13;6014987;23;20499;-69
2022/03/27 10:36:47;;;;;;;10.18;1.60;;;;;;;-1.01;66.12;98376.53;6014606;23;20232;-68
2022/03/27 10:39:59;;;;;;;8.30;2.15;;;;;;;0.58;62.28;98380.50;6014679;23;20118;-66
2022/03/27 10:42:40;;;;;;;3.95;1.05;;;;;;;0.25;55.01;98346.75;5960582;23;20043;-67
2022/03/27 10:45:14;;;;;;;5.55;1.15;;;;;;;-0.11;56.14;98382.28;6039321;23;20027;-67
2022/03/27 10:47:41;;;;;;;5.10;1.23;;;;;;;0.22;57.67;98389.53;5992548;23;20179;-68
2022/03/27 10:50:08;;;;;;;14.70;2.05;;;;;;;-0.04;58.25;98388.84;5981643;23;20030;-67
2022/03/27 10:52:39;;;;;;;15.52;1.45;;;;;;;0.06;59.82;98379.22;6016840;23;20030;-67
2022/03/27 10:55:15;;;;;;;10.48;1.67;;;;;;;0.02;56.83;98392.84;6016445;23;20106;-67
2022/03/27 10:57:43;;;;;;;4.38;1.00;;;;;;;0.23;53.06;98389.41;6015974;23;20101;-68
2022/03/27 11:00:11;;;;;;;4.85;1.15;;;;;;;-0.26;53.18;98385.16;5992055;23;20472;-68
2022/03/27 11:02:46;;;;;;;7.20;1.20;;;;;;;-0.92;55.98;98369.72;6040064;23;20030;-68
2022/03/27 11:05:36;;;;;;;12.05;2.47;;;;;;;-1.46;61.17;98418.59;6016537;23;20027;-68
2022/03/27 11:08:17;;;;;;;;;;;;;;;-1.70;64.12;98437.03;6066373;23;20082;-68
2022/03/27 11:10:49;;;;;;;9.27;1.50;;;;;;;-1.31;66.93;98438.72;6040658;23;19925;-68
2022/03/27 11:13:39;;;;;;;5.18;1.40;;;;;;;-0.84;63.75;98431.88;6040856;23;20172;-68
2022/03/27 11:16:06;;;;;;;7.05;1.60;;;;;;;-0.49;61.90;98431.13;6016167;23;20037;-69
2022/03/27 11:18:36;;;;;;;7.13;1.48;;;;;;;-0.68;60.63;98444.03;6039407;23;20124;-67
2022/03/27 11:21:03;;;;;;;5.28;1.25;;;;;;;-1.40;60.80;98449.97;5991975;23;20037;-67
2022/03/27 11:23:31;;;;;;;7.63;1.65;;;;;;;-1.56;62.44;98454.63;6062220;23;20030;-67
2022/03/27 11:25:59;;;;;;;6.13;1.30;;;;;;;-1.54;64.74;98458.00;5992621;23;20110;-68
2022/03/27 11:28:27;;;;;;;6.63;1.20;;;;;;;-1.47;63.35;98454.81;6039506;23;20319;-68
2022/03/27 11:30:56;;;;;;;5.90;0.98;;;;;;;-1.96;61.29;98452.03;6036465;23;20029;-68
2022/03/27 11:33:25;;;;;;;4.93;1.30;;;;;;;-1.88;63.39;98475.34;6015593;23;20429;-68
2022/03/27 11:36:13;;;;;;;8.82;1.42;;;;;;;-1.80;61.19;98457.97;6040156;23;20019;-68
2022/03/27 11:38:52;;;;;;;;;;;;;;;-1.76;60.62;98490.41;6017427;23;20026;-67
2022/03/27 11:41:28;;;;;;;5.70;1.55;;;;;;;-1.43;60.80;98475.81;6039933;23;20291;-69
2022/03/27 11:43:55;;;;;;;8.70;1.50;;;;;;;-1.11;57.23;98482.41;6016752;23;20030;-68
2022/03/27 11:46:26;;;;;;;7.95;1.25;;;;;;;-1.02;57.13;98496.84;6038893;23;20121;-69
2022/03/27 11:49:00;;;;;;;6.68;1.42;;;;;;;-1.24;58.79;98495.69;6016051;23;20030;-68